LFXH weather

CLOSED Le Valdahon Air Base
Franche-Comté, France

Public forecast

Using degrees Celsius for public forecast. Weather courtesy of forecast.io.

METAR (pilot weather report)

Closest report is Les Eplatures Airport, 18.8 nm (34.7 km) ESE. Retrieved 2019/07/17 06:20 UTC (8 minutes ago):

LSGC 170620Z 21002KT CAVOK 15/09 Q1018

TAF (pilot weather forecast)

Forecast is more than 12 hours old.

Closest forecast is Payerne Air Base, 30.2 nm (55.9 km) SE. Retrieved 2019/07/16 17:00 UTC (13 hours ago):

TAF LSMP 161625Z 1617/1723 VRB03KT CAVOK